Green Atlantic — 3ELB3 — position and weather

sailwx.info

Track history (hours):
 
Tides and Currents Weather Stations Pressure Air Temp Water Temp Dewpoint Dewpoint Depression Visibility Wind Speed Wind Dir Waves Ship Positions

Green Atlantic

Last reported at 2018-Jan-22 22:00 UTC. Time now 2018-Jan-22 22:30 UTC.
Position N 61°31' E 005°00'.

Length 94 m; draft 6 m.

Type: Cargo ship. MMSI: 353799000.

Date/timePositionNaut miles runAvg speedWind from/ knotsBaromVisibWave heightAir tempDewpointWater temp
2018-Jan-22 22:00N 61°31' E 005°00'4 8.4
2018-Jan-22 21:30N 61°35' E 004°57'4 8.4
2018-Jan-22 21:00N 61°39' E 004°59'4 8.2
2018-Jan-22 20:31N 61°43' E 004°55'4 7.0
2018-Jan-22 20:00N 61°46' E 004°53'0 0.2
2018-Jan-22 19:28N 61°46' E 004°53'0 0.0
2018-Jan-22 18:58N 61°46' E 004°53'0 0.0
2018-Jan-22 18:28N 61°46' E 004°53'0 0.0
2018-Jan-22 17:58N 61°46' E 004°53'0 0.0
2018-Jan-22 17:28N 61°46' E 004°53'0 0.0
2018-Jan-22 16:58N 61°46' E 004°53'0 0.0
2018-Jan-22 16:28N 61°46' E 004°53'0 0.0
2018-Jan-22 15:58N 61°46' E 004°53'0 0.0
2018-Jan-22 15:28N 61°46' E 004°53'0 0.0
2018-Jan-22 14:58N 61°46' E 004°53'0 0.0
2018-Jan-22 14:28N 61°46' E 004°53'0 0.0
2018-Jan-22 13:58N 61°46' E 004°53'0 0.0
2018-Jan-22 13:28N 61°46' E 004°53'0 0.0
2018-Jan-22 12:58N 61°46' E 004°53'0 0.0
2018-Jan-22 12:28N 61°46' E 004°53'0 0.0
2018-Jan-22 11:58N 61°46' E 004°53'0 0.0
2018-Jan-22 11:28N 61°46' E 004°53'0 0.2
2018-Jan-22 10:59N 61°46' E 004°53'2 3.7
2018-Jan-22 10:30N 61°45' E 004°56'3 5.1
2018-Jan-22 10:00N 61°46' E 005°00'510.2
2018-Jan-22 09:30N 61°49' E 005°09'4 8.4
2018-Jan-22 09:00N 61°52' E 005°16'4 8.5
2018-Jan-22 08:30N 61°54' E 005°08'2 4.2
2018-Jan-22 07:59N 61°56' E 005°08'0 0.0
2018-Jan-22 07:29N 61°56' E 005°08'0 0.0
2018-Jan-22 07:00N 61°56' E 005°08'0 0.0
2018-Jan-22 06:30N 61°56' E 005°08'0 0.2
2018-Jan-22 06:00N 61°56' E 005°09'3 6.8
2018-Jan-22 05:30N 61°60' E 005°10'4 8.4
2018-Jan-22 05:00N 62°04' E 005°08'4 8.7
2018-Jan-22 04:30N 62°08' E 005°05'4 8.3
2018-Jan-22 04:00N 62°12' E 005°03'5 9.2
2018-Jan-22 03:30N 62°15' E 005°10'5 9.3
2018-Jan-22 03:00N 62°19' E 005°17'5 9.3
2018-Jan-22 02:28N 62°23' E 005°23'5 9.5
2018-Jan-22 02:00N 62°26' E 005°30'5 9.5
2018-Jan-22 01:30N 62°27' E 005°40'510.1
2018-Jan-22 01:00N 62°27' E 005°51'3 5.8
2018-Jan-22 00:29N 62°27' E 005°58'5 9.0
2018-Jan-21 23:58N 62°29' E 005°49'4 9.2
2018-Jan-21 23:30N 62°32' E 005°43'4 8.8
2018-Jan-21 23:00N 62°37' E 005°42'5 9.0
2018-Jan-21 22:30N 62°41' E 005°46'510.0
2018-Jan-21 22:00N 62°45' E 005°53'5 9.5
2018-Jan-21 21:30N 62°48' E 005°60'4 8.9
2018-Jan-21 21:00N 62°52' E 006°06'5 9.1
2018-Jan-21 20:29N 62°55' E 006°13'5 9.4
2018-Jan-21 20:00N 62°59' E 006°19'5 9.1
2018-Jan-21 19:30N 63°02' E 006°26'4 8.8
2018-Jan-21 19:00N 63°06' E 006°32'4 8.1
2018-Jan-21 18:30N 63°09' E 006°38'4 8.4
2018-Jan-21 18:00N 63°12' E 006°44'4 8.6
2018-Jan-21 17:30N 63°15' E 006°50'4 8.7
2018-Jan-21 17:00N 63°18' E 006°56'4 8.5
2018-Jan-21 16:30N 63°22' E 007°02'4 8.0
2018-Jan-21 16:00N 63°25' E 007°09'4 8.3
2018-Jan-21 15:30N 63°28' E 007°14'4 8.4
2018-Jan-21 15:00N 63°31' E 007°20'4 8.4
2018-Jan-21 14:30N 63°34' E 007°27'4 8.8
2018-Jan-21 14:00N 63°38' E 007°32'4 8.4
2018-Jan-21 13:30N 63°41' E 007°38'4 8.4
2018-Jan-21 12:59N 63°44' E 007°45'4 8.1
2018-Jan-21 12:30N 63°47' E 007°51'4 8.3
2018-Jan-21 12:00N 63°50' E 007°58'4 8.3
2018-Jan-21 11:29N 63°53' E 008°03'4 8.5
2018-Jan-21 11:00N 63°57' E 008°09'161 8.9
2018-Jan-20 17:01N 66°13' E 011°32'1 8.3
2018-Jan-20 16:54N 66°13' E 011°34'3 8.9
2018-Jan-20 16:30N 66°14' E 011°42'5 9.8
2018-Jan-20 16:00N 66°15' E 011°54'5 9.9
2018-Jan-20 15:30N 66°16' E 012°06'3 6.5
2018-Jan-20 15:00N 66°17' E 012°14'4 8.9
2018-Jan-20 14:30N 66°21' E 012°07'5 9.2
2018-Jan-20 14:00N 66°25' E 012°06'4 8.4
2018-Jan-20 13:30N 66°29' E 012°05'1 1.9
2018-Jan-20 13:00N 66°30' E 012°06'0 0.0
2018-Jan-20 12:30N 66°30' E 012°06'0 0.0
2018-Jan-20 12:00N 66°30' E 012°06'0 0.0
2018-Jan-20 11:30N 66°30' E 012°06'0 0.0
2018-Jan-20 11:00N 66°30' E 012°06'0 0.0
2018-Jan-20 10:30N 66°30' E 012°06'0 0.0
2018-Jan-20 10:00N 66°30' E 012°06'0 0.0
2018-Jan-20 09:30N 66°30' E 012°06'0 0.0
2018-Jan-20 09:00N 66°30' E 012°06'0 0.0
2018-Jan-20 08:30N 66°30' E 012°06'0 0.0
2018-Jan-20 08:00N 66°30' E 012°06'0 0.0
2018-Jan-20 07:30N 66°30' E 012°06'0 0.0
2018-Jan-20 07:00N 66°30' E 012°06'0 0.0
2018-Jan-20 06:30N 66°30' E 012°06'0 0.0
2018-Jan-20 06:00N 66°30' E 012°06'0 0.0
2018-Jan-20 05:30N 66°30' E 012°06'0 0.0
2018-Jan-20 05:00N 66°30' E 012°06'0 0.0
2018-Jan-20 04:30N 66°30' E 012°06'0 0.0
2018-Jan-20 04:00N 66°30' E 012°06'0 0.0
2018-Jan-20 03:30N 66°30' E 012°06'0 0.0
2018-Jan-20 03:00N 66°30' E 012°06'0 0.0
2018-Jan-20 02:30N 66°30' E 012°06'0 0.0
2018-Jan-20 02:00N 66°30' E 012°06'0 0.0
2018-Jan-20 01:30N 66°30' E 012°06'0 0.0
2018-Jan-20 01:00N 66°30' E 012°06'0 0.0
2018-Jan-20 00:30N 66°30' E 012°06'0 0.0
2018-Jan-20 00:00N 66°30' E 012°06'0 0.0
2018-Jan-19 23:30N 66°30' E 012°06'0 0.0
2018-Jan-19 23:00N 66°30' E 012°06'0 0.0
2018-Jan-19 22:30N 66°30' E 012°06'0 0.0
2018-Jan-19 22:00N 66°30' E 012°06'0 0.0
2018-Jan-19 21:30N 66°30' E 012°06'0 0.0
2018-Jan-19 21:00N 66°30' E 012°06'3 5.8
2018-Jan-19 20:30N 66°27' E 012°06'510.5
2018-Jan-19 20:00N 66°22' E 012°07'510.3
2018-Jan-19 19:30N 66°17' E 012°11'1 1.8
2018-Jan-19 19:00N 66°17' E 012°13'4 7.9
2018-Jan-19 18:30N 66°20' E 012°06'5 9.0
2018-Jan-19 18:00N 66°23' E 011°58'4 8.8
2018-Jan-19 17:30N 66°26' E 011°51'5 9.2
2018-Jan-19 17:00N 66°31' E 011°51'4 8.5
2018-Jan-19 16:30N 66°35' E 011°54'4 8.7
2018-Jan-19 16:00N 66°38' E 012°00'4 8.6
2018-Jan-19 15:30N 66°42' E 012°06'5 9.3
2018-Jan-19 15:00N 66°46' E 012°13'21 9.5
2018-Jan-19 12:46N 67°03' E 012°44'2 8.8
2018-Jan-19 12:30N 67°05' E 012°47'4 8.7
2018-Jan-19 12:00N 67°09' E 012°54'4 8.8
2018-Jan-19 11:30N 67°12' E 012°60'5 8.9
2018-Jan-19 11:00N 67°16' E 013°07'5 9.4
2018-Jan-19 10:30N 67°20' E 013°12'5 9.9
2018-Jan-19 10:00N 67°24' E 013°20'5 9.9
2018-Jan-19 09:30N 67°28' E 013°29'5 9.7
2018-Jan-19 09:00N 67°31' E 013°38'5 9.7
2018-Jan-19 08:29N 67°35' E 013°46'5 9.9
2018-Jan-19 07:59N 67°39' E 013°53'5 9.3
2018-Jan-19 07:30N 67°43' E 014°01'5 9.7
2018-Jan-19 07:00N 67°46' E 014°09'510.2
2018-Jan-19 06:29N 67°50' E 014°18'510.2
2018-Jan-19 06:00N 67°54' E 014°26'510.0
2018-Jan-19 05:30N 67°57' E 014°37'510.3
2018-Jan-19 05:00N 68°00' E 014°48'510.2
2018-Jan-19 04:30N 68°03' E 014°59'510.3
2018-Jan-19 04:00N 68°06' E 015°10'510.2
2018-Jan-19 03:30N 68°09' E 015°21'510.5
2018-Jan-19 03:00N 68°12' E 015°33'510.1
2018-Jan-19 02:30N 68°16' E 015°43'510.4
2018-Jan-19 02:00N 68°20' E 015°53'510.4
2018-Jan-19 01:30N 68°24' E 016°01'1 2.9
2018-Jan-19 01:00N 68°25' E 016°00'0 0.0
2018-Jan-19 00:29N 68°25' E 016°00'0 0.0
2018-Jan-18 23:59N 68°25' E 016°00'0 0.0
2018-Jan-18 23:29N 68°25' E 015°60'0 0.0
2018-Jan-18 22:59N 68°25' E 016°00'0 0.0
2018-Jan-18 22:29N 68°25' E 016°00'0 0.0
2018-Jan-18 21:59N 68°25' E 016°00'0 0.0
2018-Jan-18 21:29N 68°25' E 016°00'0 0.0
2018-Jan-18 20:59N 68°25' E 016°00'0 0.0
2018-Jan-18 20:29N 68°25' E 016°00'0 0.0
2018-Jan-18 19:59N 68°25' E 016°00'0 0.0
2018-Jan-18 19:29N 68°25' E 016°00'0 0.0
2018-Jan-18 18:59N 68°25' E 016°00'0 0.0
2018-Jan-18 18:29N 68°25' E 016°00'0 0.0
2018-Jan-18 17:59N 68°25' E 016°00'0 0.0
2018-Jan-18 17:29N 68°25' E 016°00'0 0.0
2018-Jan-18 16:59N 68°25' E 016°00'0 0.0
2018-Jan-18 16:29N 68°25' E 016°00'0 0.0
2018-Jan-18 15:59N 68°25' E 016°00'0 0.0
2018-Jan-18 15:28N 68°25' E 016°00'0 0.0
2018-Jan-18 14:58N 68°25' E 016°00'0 0.0
2018-Jan-18 14:28N 68°25' E 016°00'0 0.0
2018-Jan-18 13:58N 68°25' E 016°00'1 2.7
2018-Jan-18 13:30N 68°24' E 016°01'4 8.6
2018-Jan-18 13:00N 68°20' E 015°55'510.6
2018-Jan-18 12:30N 68°16' E 015°46'510.5
2018-Jan-18 12:00N 68°13' E 015°35'510.4
2018-Jan-18 11:30N 68°10' E 015°24'610.6
2018-Jan-18 10:59N 68°07' E 015°12'510.8
2018-Jan-18 10:30N 68°04' E 015°00'510.6
2018-Jan-18 10:00N 68°00' E 014°49'510.4
2018-Jan-18 09:31N 67°57' E 014°38'510.1
2018-Jan-18 09:00N 67°54' E 014°27'510.2
2018-Jan-18 08:30N 67°50' E 014°18'5 9.9
2018-Jan-18 08:01N 67°47' E 014°10'5 9.7
2018-Jan-18 07:30N 67°43' E 014°02'5 9.6
2018-Jan-18 07:00N 67°39' E 013°53'5 9.1
2018-Jan-18 06:30N 67°36' E 013°46'5 9.2
2018-Jan-18 06:00N 67°32' E 013°38'5 9.1
2018-Jan-18 05:30N 67°29' E 013°30'5 9.4
2018-Jan-18 05:00N 67°25' E 013°23'5 9.4
2018-Jan-18 04:30N 67°21' E 013°16'510.4
2018-Jan-18 04:00N 67°17' E 013°09'510.5
2018-Jan-18 03:31N 67°12' E 013°02'510.5
2018-Jan-18 03:00N 67°08' E 012°54'510.3
2018-Jan-18 02:30N 67°04' E 012°46'1710.6
2018-Jan-18 00:55N 66°50' E 012°21'9 9.8
2018-Jan-18 00:01N 66°43' E 012°09'110.1
2018-Jan-17 23:58N 66°42' E 012°08'  
Track history (hours):
 
Tides and Currents Weather Stations Pressure Air Temp Water Temp Dewpoint Dewpoint Depression Visibility Wind Speed Wind Dir Waves Ship Positions

Green Atlantic

Last reported at 2018-Jan-22 22:00 UTC. Time now 2018-Jan-22 22:30 UTC.
Position N 61°31' E 005°00'.

Length 94 m; draft 6 m.

Type: Cargo ship. MMSI: 353799000.

Date/timePositionNaut miles runAvg speedWind from/ knotsBaromVisibWave heightAir tempDewpointWater temp
2018-Jan-22 22:00N 61°31' E 005°00'4 8.4
2018-Jan-22 21:30N 61°35' E 004°57'4 8.4
2018-Jan-22 21:00N 61°39' E 004°59'4 8.2
2018-Jan-22 20:31N 61°43' E 004°55'4 7.0
2018-Jan-22 20:00N 61°46' E 004°53'0 0.2
2018-Jan-22 19:28N 61°46' E 004°53'0 0.0
2018-Jan-22 18:58N 61°46' E 004°53'0 0.0
2018-Jan-22 18:28N 61°46' E 004°53'0 0.0
2018-Jan-22 17:58N 61°46' E 004°53'0 0.0
2018-Jan-22 17:28N 61°46' E 004°53'0 0.0
2018-Jan-22 16:58N 61°46' E 004°53'0 0.0
2018-Jan-22 16:28N 61°46' E 004°53'0 0.0
2018-Jan-22 15:58N 61°46' E 004°53'0 0.0
2018-Jan-22 15:28N 61°46' E 004°53'0 0.0
2018-Jan-22 14:58N 61°46' E 004°53'0 0.0
2018-Jan-22 14:28N 61°46' E 004°53'0 0.0
2018-Jan-22 13:58N 61°46' E 004°53'0 0.0
2018-Jan-22 13:28N 61°46' E 004°53'0 0.0
2018-Jan-22 12:58N 61°46' E 004°53'0 0.0
2018-Jan-22 12:28N 61°46' E 004°53'0 0.0
2018-Jan-22 11:58N 61°46' E 004°53'0 0.0
2018-Jan-22 11:28N 61°46' E 004°53'0 0.2
2018-Jan-22 10:59N 61°46' E 004°53'2 3.7
2018-Jan-22 10:30N 61°45' E 004°56'3 5.1
2018-Jan-22 10:00N 61°46' E 005°00'510.2
2018-Jan-22 09:30N 61°49' E 005°09'4 8.4
2018-Jan-22 09:00N 61°52' E 005°16'4 8.5
2018-Jan-22 08:30N 61°54' E 005°08'2 4.2
2018-Jan-22 07:59N 61°56' E 005°08'0 0.0
2018-Jan-22 07:29N 61°56' E 005°08'0 0.0
2018-Jan-22 07:00N 61°56' E 005°08'0 0.0
2018-Jan-22 06:30N 61°56' E 005°08'0 0.2
2018-Jan-22 06:00N 61°56' E 005°09'3 6.8
2018-Jan-22 05:30N 61°60' E 005°10'4 8.4
2018-Jan-22 05:00N 62°04' E 005°08'4 8.7
2018-Jan-22 04:30N 62°08' E 005°05'4 8.3
2018-Jan-22 04:00N 62°12' E 005°03'5 9.2
2018-Jan-22 03:30N 62°15' E 005°10'5 9.3
2018-Jan-22 03:00N 62°19' E 005°17'5 9.3
2018-Jan-22 02:28N 62°23' E 005°23'5 9.5
2018-Jan-22 02:00N 62°26' E 005°30'5 9.5
2018-Jan-22 01:30N 62°27' E 005°40'510.1
2018-Jan-22 01:00N 62°27' E 005°51'3 5.8
2018-Jan-22 00:29N 62°27' E 005°58'5 9.0
2018-Jan-21 23:58N 62°29' E 005°49'4 9.2
2018-Jan-21 23:30N 62°32' E 005°43'4 8.8
2018-Jan-21 23:00N 62°37' E 005°42'5 9.0
2018-Jan-21 22:30N 62°41' E 005°46'510.0
2018-Jan-21 22:00N 62°45' E 005°53'5 9.5
2018-Jan-21 21:30N 62°48' E 005°60'4 8.9
2018-Jan-21 21:00N 62°52' E 006°06'5 9.1
2018-Jan-21 20:29N 62°55' E 006°13'5 9.4
2018-Jan-21 20:00N 62°59' E 006°19'5 9.1
2018-Jan-21 19:30N 63°02' E 006°26'4 8.8
2018-Jan-21 19:00N 63°06' E 006°32'4 8.1
2018-Jan-21 18:30N 63°09' E 006°38'4 8.4
2018-Jan-21 18:00N 63°12' E 006°44'4 8.6
2018-Jan-21 17:30N 63°15' E 006°50'4 8.7
2018-Jan-21 17:00N 63°18' E 006°56'4 8.5
2018-Jan-21 16:30N 63°22' E 007°02'4 8.0
2018-Jan-21 16:00N 63°25' E 007°09'4 8.3
2018-Jan-21 15:30N 63°28' E 007°14'4 8.4
2018-Jan-21 15:00N 63°31' E 007°20'4 8.4
2018-Jan-21 14:30N 63°34' E 007°27'4 8.8
2018-Jan-21 14:00N 63°38' E 007°32'4 8.4
2018-Jan-21 13:30N 63°41' E 007°38'4 8.4
2018-Jan-21 12:59N 63°44' E 007°45'4 8.1
2018-Jan-21 12:30N 63°47' E 007°51'4 8.3
2018-Jan-21 12:00N 63°50' E 007°58'4 8.3
2018-Jan-21 11:29N 63°53' E 008°03'4 8.5
2018-Jan-21 11:00N 63°57' E 008°09'161 8.9
2018-Jan-20 17:01N 66°13' E 011°32'1 8.3
2018-Jan-20 16:54N 66°13' E 011°34'3 8.9
2018-Jan-20 16:30N 66°14' E 011°42'5 9.8
2018-Jan-20 16:00N 66°15' E 011°54'5 9.9
2018-Jan-20 15:30N 66°16' E 012°06'3 6.5
2018-Jan-20 15:00N 66°17' E 012°14'4 8.9
2018-Jan-20 14:30N 66°21' E 012°07'5 9.2
2018-Jan-20 14:00N 66°25' E 012°06'4 8.4
2018-Jan-20 13:30N 66°29' E 012°05'1 1.9
2018-Jan-20 13:00N 66°30' E 012°06'0 0.0
2018-Jan-20 12:30N 66°30' E 012°06'0 0.0
2018-Jan-20 12:00N 66°30' E 012°06'0 0.0
2018-Jan-20 11:30N 66°30' E 012°06'0 0.0
2018-Jan-20 11:00N 66°30' E 012°06'0 0.0
2018-Jan-20 10:30N 66°30' E 012°06'0 0.0
2018-Jan-20 10:00N 66°30' E 012°06'0 0.0
2018-Jan-20 09:30N 66°30' E 012°06'0 0.0
2018-Jan-20 09:00N 66°30' E 012°06'0 0.0
2018-Jan-20 08:30N 66°30' E 012°06'0 0.0
2018-Jan-20 08:00N 66°30' E 012°06'0 0.0
2018-Jan-20 07:30N 66°30' E 012°06'0 0.0
2018-Jan-20 07:00N 66°30' E 012°06'0 0.0
2018-Jan-20 06:30N 66°30' E 012°06'0 0.0
2018-Jan-20 06:00N 66°30' E 012°06'0 0.0
2018-Jan-20 05:30N 66°30' E 012°06'0 0.0
2018-Jan-20 05:00N 66°30' E 012°06'0 0.0
2018-Jan-20 04:30N 66°30' E 012°06'0 0.0
2018-Jan-20 04:00N 66°30' E 012°06'0 0.0
2018-Jan-20 03:30N 66°30' E 012°06'0 0.0
2018-Jan-20 03:00N 66°30' E 012°06'0 0.0
2018-Jan-20 02:30N 66°30' E 012°06'0 0.0
2018-Jan-20 02:00N 66°30' E 012°06'0 0.0
2018-Jan-20 01:30N 66°30' E 012°06'0 0.0
2018-Jan-20 01:00N 66°30' E 012°06'0 0.0
2018-Jan-20 00:30N 66°30' E 012°06'0 0.0
2018-Jan-20 00:00N 66°30' E 012°06'0 0.0
2018-Jan-19 23:30N 66°30' E 012°06'0 0.0
2018-Jan-19 23:00N 66°30' E 012°06'0 0.0
2018-Jan-19 22:30N 66°30' E 012°06'0 0.0
2018-Jan-19 22:00N 66°30' E 012°06'0 0.0
2018-Jan-19 21:30N 66°30' E 012°06'0 0.0
2018-Jan-19 21:00N 66°30' E 012°06'3 5.8
2018-Jan-19 20:30N 66°27' E 012°06'510.5
2018-Jan-19 20:00N 66°22' E 012°07'510.3
2018-Jan-19 19:30N 66°17' E 012°11'1 1.8
2018-Jan-19 19:00N 66°17' E 012°13'4 7.9
2018-Jan-19 18:30N 66°20' E 012°06'5 9.0
2018-Jan-19 18:00N 66°23' E 011°58'4 8.8
2018-Jan-19 17:30N 66°26' E 011°51'5 9.2
2018-Jan-19 17:00N 66°31' E 011°51'4 8.5
2018-Jan-19 16:30N 66°35' E 011°54'4 8.7
2018-Jan-19 16:00N 66°38' E 012°00'4 8.6
2018-Jan-19 15:30N 66°42' E 012°06'5 9.3
2018-Jan-19 15:00N 66°46' E 012°13'21 9.5
2018-Jan-19 12:46N 67°03' E 012°44'2 8.8
2018-Jan-19 12:30N 67°05' E 012°47'4 8.7
2018-Jan-19 12:00N 67°09' E 012°54'4 8.8
2018-Jan-19 11:30N 67°12' E 012°60'5 8.9
2018-Jan-19 11:00N 67°16' E 013°07'5 9.4
2018-Jan-19 10:30N 67°20' E 013°12'5 9.9
2018-Jan-19 10:00N 67°24' E 013°20'5 9.9
2018-Jan-19 09:30N 67°28' E 013°29'5 9.7
2018-Jan-19 09:00N 67°31' E 013°38'5 9.7
2018-Jan-19 08:29N 67°35' E 013°46'5 9.9
2018-Jan-19 07:59N 67°39' E 013°53'5 9.3
2018-Jan-19 07:30N 67°43' E 014°01'5 9.7
2018-Jan-19 07:00N 67°46' E 014°09'510.2
2018-Jan-19 06:29N 67°50' E 014°18'510.2
2018-Jan-19 06:00N 67°54' E 014°26'510.0
2018-Jan-19 05:30N 67°57' E 014°37'510.3
2018-Jan-19 05:00N 68°00' E 014°48'510.2
2018-Jan-19 04:30N 68°03' E 014°59'510.3
2018-Jan-19 04:00N 68°06' E 015°10'510.2
2018-Jan-19 03:30N 68°09' E 015°21'510.5
2018-Jan-19 03:00N 68°12' E 015°33'510.1
2018-Jan-19 02:30N 68°16' E 015°43'510.4
2018-Jan-19 02:00N 68°20' E 015°53'510.4
2018-Jan-19 01:30N 68°24' E 016°01'1 2.9
2018-Jan-19 01:00N 68°25' E 016°00'0 0.0
2018-Jan-19 00:29N 68°25' E 016°00'0 0.0
2018-Jan-18 23:59N 68°25' E 016°00'0 0.0
2018-Jan-18 23:29N 68°25' E 015°60'0 0.0
2018-Jan-18 22:59N 68°25' E 016°00'0 0.0
2018-Jan-18 22:29N 68°25' E 016°00'0 0.0
2018-Jan-18 21:59N 68°25' E 016°00'0 0.0
2018-Jan-18 21:29N 68°25' E 016°00'0 0.0
2018-Jan-18 20:59N 68°25' E 016°00'0 0.0
2018-Jan-18 20:29N 68°25' E 016°00'0 0.0
2018-Jan-18 19:59N 68°25' E 016°00'0 0.0
2018-Jan-18 19:29N 68°25' E 016°00'0 0.0
2018-Jan-18 18:59N 68°25' E 016°00'0 0.0
2018-Jan-18 18:29N 68°25' E 016°00'0 0.0
2018-Jan-18 17:59N 68°25' E 016°00'0 0.0
2018-Jan-18 17:29N 68°25' E 016°00'0 0.0
2018-Jan-18 16:59N 68°25' E 016°00'0 0.0
2018-Jan-18 16:29N 68°25' E 016°00'0 0.0
2018-Jan-18 15:59N 68°25' E 016°00'0 0.0
2018-Jan-18 15:28N 68°25' E 016°00'0 0.0
2018-Jan-18 14:58N 68°25' E 016°00'0 0.0
2018-Jan-18 14:28N 68°25' E 016°00'0 0.0
2018-Jan-18 13:58N 68°25' E 016°00'1 2.7
2018-Jan-18 13:30N 68°24' E 016°01'4 8.6
2018-Jan-18 13:00N 68°20' E 015°55'510.6
2018-Jan-18 12:30N 68°16' E 015°46'510.5
2018-Jan-18 12:00N 68°13' E 015°35'510.4
2018-Jan-18 11:30N 68°10' E 015°24'610.6
2018-Jan-18 10:59N 68°07' E 015°12'510.8
2018-Jan-18 10:30N 68°04' E 015°00'510.6
2018-Jan-18 10:00N 68°00' E 014°49'510.4
2018-Jan-18 09:31N 67°57' E 014°38'510.1
2018-Jan-18 09:00N 67°54' E 014°27'510.2
2018-Jan-18 08:30N 67°50' E 014°18'5 9.9
2018-Jan-18 08:01N 67°47' E 014°10'5 9.7
2018-Jan-18 07:30N 67°43' E 014°02'5 9.6
2018-Jan-18 07:00N 67°39' E 013°53'5 9.1
2018-Jan-18 06:30N 67°36' E 013°46'5 9.2
2018-Jan-18 06:00N 67°32' E 013°38'5 9.1
2018-Jan-18 05:30N 67°29' E 013°30'5 9.4
2018-Jan-18 05:00N 67°25' E 013°23'5 9.4
2018-Jan-18 04:30N 67°21' E 013°16'510.4
2018-Jan-18 04:00N 67°17' E 013°09'510.5
2018-Jan-18 03:31N 67°12' E 013°02'510.5
2018-Jan-18 03:00N 67°08' E 012°54'510.3
2018-Jan-18 02:30N 67°04' E 012°46'1710.6
2018-Jan-18 00:55N 66°50' E 012°21'9 9.8
2018-Jan-18 00:01N 66°43' E 012°09'110.1
2018-Jan-17 23:58N 66°42' E 012°08'  

Dump ship's entire track history